x

South Bass Island, Oh (sbio1) Weather Station

2:00pm - Wed 29th Jul 2015 All times are CDT. -5 hours from GMT.

  • Wind
    9mph
  • Air Temp 88°f
  • Sea Pressure 1012.1mb
  • South Bass Island, Oh
  • South Bass Island, Oh

More Historic Weather Station data

Upgrade to MSW Pro to gain access to the past 30 days of data for over 8000 Wavebouys and Weather Stations around the globe.

Join Pro

Comparision Forecast

View Surf forecast
   
Wed 07/29 2:00pm 9
mph
1012.1mb 88f
1:00pm 6 7 mph 1012.9mb 87f
12:00pm 5 6 mph 1013.4mb 86f
10:00am 5 6 mph 1014.1mb 81f
9:00am 7
mph
1014.8mb 78f
8:00am 2 3 mph 1014.7mb 78f
7:00am 2 5 mph 1014.4mb 78f
6:00am 2
mph
1014.2mb 75f
5:00am 6 7 mph 1014.1mb 76f
4:00am 5 6 mph 1013.9mb 76f
3:00am 1 3 mph 1014mb 75f
2:00am 3 5 mph 1014.7mb 78f
1:00am 3 5 mph 1015.1mb 76f
12:00am 8
mph
1015.4mb 78f
Tue 07/28 11:00pm 7 8 mph 1015.8mb 77f
10:00pm 7 8 mph 1015.7mb 78f
9:00pm 8 11 mph 1014.6mb 78f
8:00pm 6 8 mph 1014.1mb 78f
7:00pm 7 9 mph 1014.2mb 79f
6:00pm 7 11 mph 1014.2mb 80f
5:00pm 8 10 mph 1014.8mb 81f
4:00pm 5 10 mph 1015.2mb 84f
3:00pm 3 6 mph 1015.8mb 84f
2:00pm 5 8 mph 1016mb 83f
1:00pm 7 10 mph 1016.3mb 81f
12:00pm 8 11 mph 1016.4mb 82f
11:00am 7 10 mph 1016.5mb 80f
10:00am 6 8 mph 1016.4mb 81f
9:00am 5 7 mph 1016.9mb 79f
8:00am 6 7 mph 1016.8mb 79f
7:00am 6 8 mph 1016.9mb 77f
6:00am 5 7 mph 1016.8mb 76f
5:00am 5 7 mph 1016.4mb 74f
4:00am 5 6 mph 1015.9mb 73f
3:00am 5 6 mph 1015.9mb 74f
2:00am 7 9 mph 1016.2mb 76f
1:00am 6 8 mph 1016.5mb 76f
12:00am 6 8 mph 1016.7mb 75f
Mon 07/27 11:00pm 6 7 mph 1017mb 76f
10:00pm 6 8 mph 1016.4mb 77f
9:00pm 5 7 mph 1016mb 77f
8:00pm 6 8 mph 1015.4mb 78f
7:00pm 5 7 mph 1015.3mb 80f
6:00pm 5 8 mph 1015.3mb 83f
5:00pm 8 11 mph 1015.5mb 83f
4:00pm 8 10 mph 1015.4mb 83f
3:00pm 7 11 mph 1016mb 83f
2:00pm 6 10 mph 1016.2mb 82f
1:00pm 1 5 mph 1016.6mb 81f
12:00pm 9 10 mph 1016.8mb 78f
11:00am 5 9 mph 1017.1mb 79f
10:00am 5 8 mph 1017mb 79f
9:00am 5 7 mph 1016.7mb 78f
8:00am 7 10 mph 1016.2mb 76f
7:00am 6 8 mph 1016.1mb 75f
6:00am 5 7 mph 1015.9mb 73f
5:00am 5
mph
1015.5mb 72f
4:00am 5 6 mph 1015.1mb 73f
3:00am 2
mph
1015.1mb 74f
2:00am 2
mph
1015.3mb 75f
1:00am 2
mph
1015.1mb 74f
12:00am 2
mph
1015.3mb 74f
Sun 07/26 11:00pm 5
mph
1015mb 74f
10:00pm 5
mph
1014.8mb 75f
9:00pm 2
mph
1014.6mb 75f
8:00pm 2 5 mph 1014.4mb 77f
7:00pm 7
mph
1014.6mb 77f
6:00pm 7
mph
1014.4mb 78f
5:00pm 7 8 mph 1014.7mb 78f
4:00pm 3 6 mph 1014.2mb 81f
3:00pm 5 6 mph 1014.4mb 80f
2:00pm 2 6 mph 1014.7mb 80f
1:00pm 7 11 mph 1015.2mb 78f
12:00pm 6 10 mph 1015.5mb 78f
11:00am 7 9 mph 1015mb 78f
10:00am 10 15 mph 1014.8mb 78f
9:00am 9 13 mph 1014.5mb 77f
8:00am 10 15 mph 1014.4mb 77f
7:00am 8 13 mph 1014mb 75f
6:00am 8 11 mph 1013.3mb 74f
5:00am 5
mph
1013mb 73f
4:00am 2
mph
1012.6mb 73f
3:00am 1 2 mph 1012.7mb 73f
2:00am 5 6 mph 1012.7mb 75f
1:00am 8
mph
1012.3mb 75f
12:00am 21 23 mph 1012.6mb 75f
Sat 07/25 11:00pm 14 16 mph 1012.3mb 78f
10:00pm 11 14 mph 1012.4mb 78f
9:00pm 13 14 mph 1012.2mb 79f